sensor_id;sensor_type;location;lat;lon;timestamp;P1;durP1;ratioP1;P2;durP2;ratioP2
73454;SDS011;61690;51.824;6.306;2023-06-24T00:01:42;8.70;;;5.00;;
73454;SDS011;61690;51.824;6.306;2023-06-24T00:04:07;7.73;;;4.27;;
73454;SDS011;61690;51.824;6.306;2023-06-24T00:06:32;6.30;;;4.33;;
73454;SDS011;61690;51.824;6.306;2023-06-24T00:08:58;8.73;;;4.97;;
73454;SDS011;61690;51.824;6.306;2023-06-24T00:11:32;7.75;;;4.68;;
73454;SDS011;61690;51.824;6.306;2023-06-24T00:13:57;8.35;;;4.50;;
73454;SDS011;61690;51.824;6.306;2023-06-24T00:16:22;8.07;;;4.80;;
73454;SDS011;61690;51.824;6.306;2023-06-24T00:18:51;9.20;;;4.95;;
73454;SDS011;61690;51.824;6.306;2023-06-24T00:21:23;7.78;;;4.60;;
73454;SDS011;61690;51.824;6.306;2023-06-24T00:23:58;8.47;;;4.70;;
73454;SDS011;61690;51.824;6.306;2023-06-24T00:26:27;9.00;;;4.93;;
73454;SDS011;61690;51.824;6.306;2023-06-24T00:28:52;8.90;;;5.17;;
73454;SDS011;61690;51.824;6.306;2023-06-24T00:31:18;9.02;;;4.45;;
73454;SDS011;61690;51.824;6.306;2023-06-24T00:33:44;8.97;;;5.00;;
73454;SDS011;61690;51.824;6.306;2023-06-24T00:36:10;8.05;;;5.07;;
73454;SDS011;61690;51.824;6.306;2023-06-24T00:38:36;7.80;;;4.90;;
73454;SDS011;61690;51.824;6.306;2023-06-24T00:41:10;8.35;;;4.78;;
73454;SDS011;61690;51.824;6.306;2023-06-24T00:43:35;8.20;;;4.90;;
73454;SDS011;61690;51.824;6.306;2023-06-24T00:46:01;8.93;;;4.90;;
73454;SDS011;61690;51.824;6.306;2023-06-24T00:48:28;8.00;;;5.40;;
73454;SDS011;61690;51.824;6.306;2023-06-24T00:50:53;9.07;;;5.10;;
73454;SDS011;61690;51.824;6.306;2023-06-24T00:53:19;10.80;;;4.93;;
73454;SDS011;61690;51.824;6.306;2023-06-24T00:55:49;8.70;;;4.90;;
73454;SDS011;61690;51.824;6.306;2023-06-24T00:58:17;8.35;;;5.10;;
73454;SDS011;61690;51.824;6.306;2023-06-24T01:00:47;10.55;;;4.95;;
73454;SDS011;61690;51.824;6.306;2023-06-24T01:03:21;8.32;;;5.47;;
73454;SDS011;61690;51.824;6.306;2023-06-24T01:05:49;10.17;;;4.97;;
73454;SDS011;61690;51.824;6.306;2023-06-24T01:08:14;8.38;;;4.72;;
73454;SDS011;61690;51.824;6.306;2023-06-24T01:10:40;9.40;;;5.22;;
73454;SDS011;61690;51.824;6.306;2023-06-24T01:13:07;9.82;;;5.43;;
73454;SDS011;61690;51.824;6.306;2023-06-24T01:15:33;7.80;;;4.90;;
73454;SDS011;61690;51.824;6.306;2023-06-24T01:18:21;9.57;;;5.30;;
73454;SDS011;61690;51.824;6.306;2023-06-24T01:20:55;9.85;;;5.30;;
73454;SDS011;61690;51.824;6.306;2023-06-24T01:23:36;8.63;;;5.20;;
73454;SDS011;61690;51.824;6.306;2023-06-24T01:31:59;10.45;;;5.53;;
73454;SDS011;61690;51.824;6.306;2023-06-24T01:34:32;9.00;;;5.32;;
73454;SDS011;61690;51.824;6.306;2023-06-24T01:37:20;8.98;;;5.20;;
73454;SDS011;61690;51.824;6.306;2023-06-24T01:39:54;8.68;;;5.15;;
73454;SDS011;61690;51.824;6.306;2023-06-24T01:42:25;10.77;;;6.30;;
73454;SDS011;61690;51.824;6.306;2023-06-24T01:44:54;9.73;;;5.78;;
73454;SDS011;61690;51.824;6.306;2023-06-24T01:47:23;9.40;;;5.60;;
73454;SDS011;61690;51.824;6.306;2023-06-24T01:49:52;9.70;;;5.25;;
73454;SDS011;61690;51.824;6.306;2023-06-24T01:52:20;8.95;;;5.40;;
73454;SDS011;61690;51.824;6.306;2023-06-24T01:54:48;11.47;;;5.93;;
73454;SDS011;61690;51.824;6.306;2023-06-24T01:57:15;9.10;;;5.38;;
73454;SDS011;61690;51.824;6.306;2023-06-24T01:59:43;10.40;;;5.88;;
73454;SDS011;61690;51.824;6.306;2023-06-24T02:02:10;10.32;;;5.45;;
73454;SDS011;61690;51.824;6.306;2023-06-24T02:04:39;9.40;;;5.65;;
73454;SDS011;61690;51.824;6.306;2023-06-24T02:07:06;9.30;;;5.30;;
73454;SDS011;61690;51.824;6.306;2023-06-24T02:09:33;9.45;;;5.88;;
73454;SDS011;61690;51.824;6.306;2023-06-24T02:12:01;8.73;;;5.60;;
73454;SDS011;61690;51.824;6.306;2023-06-24T02:14:28;9.63;;;5.50;;
73454;SDS011;61690;51.824;6.306;2023-06-24T02:16:55;9.20;;;5.43;;
73454;SDS011;61690;51.824;6.306;2023-06-24T02:19:29;9.83;;;5.60;;
73454;SDS011;61690;51.824;6.306;2023-06-24T02:21:58;10.80;;;5.65;;
73454;SDS011;61690;51.824;6.306;2023-06-24T02:24:25;9.18;;;5.65;;
73454;SDS011;61690;51.824;6.306;2023-06-24T02:26:52;10.00;;;5.93;;
73454;SDS011;61690;51.824;6.306;2023-06-24T02:29:19;9.95;;;5.63;;
73454;SDS011;61690;51.824;6.306;2023-06-24T02:31:46;12.17;;;5.97;;
73454;SDS011;61690;51.824;6.306;2023-06-24T02:34:11;9.85;;;5.72;;
73454;SDS011;61690;51.824;6.306;2023-06-24T02:36:37;11.23;;;5.90;;
73454;SDS011;61690;51.824;6.306;2023-06-24T02:39:02;10.80;;;5.43;;
73454;SDS011;61690;51.824;6.306;2023-06-24T02:41:28;11.40;;;5.57;;
73454;SDS011;61690;51.824;6.306;2023-06-24T02:43:54;10.07;;;5.73;;
73454;SDS011;61690;51.824;6.306;2023-06-24T02:46:19;10.87;;;5.80;;
73454;SDS011;61690;51.824;6.306;2023-06-24T02:48:48;13.60;;;6.22;;
73454;SDS011;61690;51.824;6.306;2023-06-24T02:51:14;10.25;;;6.40;;
73454;SDS011;61690;51.824;6.306;2023-06-24T02:53:40;11.47;;;5.77;;
73454;SDS011;61690;51.824;6.306;2023-06-24T02:56:08;10.80;;;5.80;;
73454;SDS011;61690;51.824;6.306;2023-06-24T02:58:36;10.68;;;6.00;;
73454;SDS011;61690;51.824;6.306;2023-06-24T03:01:05;10.15;;;6.30;;
73454;SDS011;61690;51.824;6.306;2023-06-24T03:03:35;11.13;;;6.13;;
73454;SDS011;61690;51.824;6.306;2023-06-24T03:06:01;11.00;;;6.88;;
73454;SDS011;61690;51.824;6.306;2023-06-24T03:08:27;41.43;;;8.60;;
73454;SDS011;61690;51.824;6.306;2023-06-24T03:10:54;13.05;;;7.10;;
73454;SDS011;61690;51.824;6.306;2023-06-24T03:13:21;11.65;;;7.28;;
73454;SDS011;61690;51.824;6.306;2023-06-24T03:15:48;11.57;;;7.15;;
73454;SDS011;61690;51.824;6.306;2023-06-24T03:18:13;12.27;;;6.97;;
73454;SDS011;61690;51.824;6.306;2023-06-24T03:20:38;13.90;;;7.97;;
73454;SDS011;61690;51.824;6.306;2023-06-24T03:23:07;11.87;;;7.10;;
73454;SDS011;61690;51.824;6.306;2023-06-24T03:25:33;14.13;;;7.50;;
73454;SDS011;61690;51.824;6.306;2023-06-24T03:27:59;13.13;;;7.50;;
73454;SDS011;61690;51.824;6.306;2023-06-24T03:30:32;14.33;;;8.17;;
73454;SDS011;61690;51.824;6.306;2023-06-24T03:32:58;13.00;;;6.85;;
73454;SDS011;61690;51.824;6.306;2023-06-24T03:35:23;15.07;;;7.40;;
73454;SDS011;61690;51.824;6.306;2023-06-24T03:37:49;12.83;;;7.60;;
73454;SDS011;61690;51.824;6.306;2023-06-24T03:40:14;13.70;;;7.10;;
73454;SDS011;61690;51.824;6.306;2023-06-24T03:42:40;12.23;;;7.00;;
73454;SDS011;61690;51.824;6.306;2023-06-24T03:45:05;14.77;;;7.05;;
73454;SDS011;61690;51.824;6.306;2023-06-24T03:47:32;11.23;;;6.60;;
73454;SDS011;61690;51.824;6.306;2023-06-24T03:49:58;12.40;;;7.00;;
73454;SDS011;61690;51.824;6.306;2023-06-24T03:52:32;11.93;;;6.60;;
73454;SDS011;61690;51.824;6.306;2023-06-24T03:54:58;13.27;;;6.63;;
73454;SDS011;61690;51.824;6.306;2023-06-24T03:57:23;11.23;;;6.70;;
73454;SDS011;61690;51.824;6.306;2023-06-24T03:59:49;13.18;;;7.30;;
73454;SDS011;61690;51.824;6.306;2023-06-24T04:02:14;12.97;;;7.43;;
73454;SDS011;61690;51.824;6.306;2023-06-24T04:04:40;12.60;;;6.55;;
73454;SDS011;61690;51.824;6.306;2023-06-24T04:07:07;13.57;;;6.93;;
73454;SDS011;61690;51.824;6.306;2023-06-24T04:09:33;11.98;;;6.30;;
73454;SDS011;61690;51.824;6.306;2023-06-24T04:12:00;13.97;;;7.07;;
73454;SDS011;61690;51.824;6.306;2023-06-24T04:14:26;11.25;;;7.10;;
73454;SDS011;61690;51.824;6.306;2023-06-24T04:16:51;12.43;;;7.30;;
73454;SDS011;61690;51.824;6.306;2023-06-24T04:19:20;13.70;;;7.30;;
73454;SDS011;61690;51.824;6.306;2023-06-24T04:21:47;13.30;;;6.60;;
73454;SDS011;61690;51.824;6.306;2023-06-24T04:24:12;11.87;;;6.80;;
73454;SDS011;61690;51.824;6.306;2023-06-24T04:26:38;11.57;;;6.60;;
73454;SDS011;61690;51.824;6.306;2023-06-24T04:29:03;14.77;;;8.00;;
73454;SDS011;61690;51.824;6.306;2023-06-24T04:31:29;12.80;;;8.00;;
73454;SDS011;61690;51.824;6.306;2023-06-24T04:33:54;13.23;;;8.67;;
73454;SDS011;61690;51.824;6.306;2023-06-24T04:36:20;13.13;;;7.88;;
73454;SDS011;61690;51.824;6.306;2023-06-24T04:38:45;15.10;;;8.53;;
73454;SDS011;61690;51.824;6.306;2023-06-24T04:41:11;12.85;;;8.13;;
73454;SDS011;61690;51.824;6.306;2023-06-24T04:43:36;12.07;;;7.23;;
73454;SDS011;61690;51.824;6.306;2023-06-24T04:46:01;12.50;;;7.70;;
73454;SDS011;61690;51.824;6.306;2023-06-24T04:48:27;12.93;;;8.20;;
73454;SDS011;61690;51.824;6.306;2023-06-24T04:50:52;12.60;;;7.27;;
73454;SDS011;61690;51.824;6.306;2023-06-24T04:53:21;12.07;;;7.93;;
73454;SDS011;61690;51.824;6.306;2023-06-24T04:55:47;15.90;;;9.30;;
73454;SDS011;61690;51.824;6.306;2023-06-24T04:58:12;12.33;;;8.23;;
73454;SDS011;61690;51.824;6.306;2023-06-24T05:00:38;14.40;;;8.10;;
73454;SDS011;61690;51.824;6.306;2023-06-24T05:03:04;12.73;;;7.75;;
73454;SDS011;61690;51.824;6.306;2023-06-24T05:05:30;12.30;;;7.80;;
73454;SDS011;61690;51.824;6.306;2023-06-24T05:07:57;11.55;;;7.80;;
73454;SDS011;61690;51.824;6.306;2023-06-24T05:10:22;12.47;;;8.30;;
73454;SDS011;61690;51.824;6.306;2023-06-24T05:12:47;15.50;;;7.97;;
73454;SDS011;61690;51.824;6.306;2023-06-24T05:15:13;14.17;;;8.30;;
73454;SDS011;61690;51.824;6.306;2023-06-24T05:17:39;14.07;;;8.70;;
73454;SDS011;61690;51.824;6.306;2023-06-24T05:20:04;13.83;;;8.73;;
73454;SDS011;61690;51.824;6.306;2023-06-24T05:22:31;12.10;;;7.90;;
73454;SDS011;61690;51.824;6.306;2023-06-24T05:24:57;12.95;;;8.30;;
73454;SDS011;61690;51.824;6.306;2023-06-24T05:27:26;14.97;;;7.70;;
73454;SDS011;61690;51.824;6.306;2023-06-24T05:29:51;12.23;;;7.70;;
73454;SDS011;61690;51.824;6.306;2023-06-24T05:32:17;14.07;;;8.00;;
73454;SDS011;61690;51.824;6.306;2023-06-24T05:34:44;14.23;;;8.13;;
73454;SDS011;61690;51.824;6.306;2023-06-24T05:37:10;12.80;;;7.63;;
73454;SDS011;61690;51.824;6.306;2023-06-24T05:39:35;13.30;;;7.67;;
73454;SDS011;61690;51.824;6.306;2023-06-24T05:42:02;14.33;;;7.60;;
73454;SDS011;61690;51.824;6.306;2023-06-24T05:44:30;12.95;;;7.90;;
73454;SDS011;61690;51.824;6.306;2023-06-24T05:46:57;15.57;;;8.88;;
73454;SDS011;61690;51.824;6.306;2023-06-24T05:49:22;14.20;;;9.50;;
73454;SDS011;61690;51.824;6.306;2023-06-24T05:51:48;15.90;;;10.13;;
73454;SDS011;61690;51.824;6.306;2023-06-24T05:54:13;15.73;;;10.00;;
73454;SDS011;61690;51.824;6.306;2023-06-24T05:56:39;15.63;;;10.50;;
73454;SDS011;61690;51.824;6.306;2023-06-24T05:59:04;16.23;;;10.20;;
73454;SDS011;61690;51.824;6.306;2023-06-24T06:01:29;15.50;;;9.97;;
73454;SDS011;61690;51.824;6.306;2023-06-24T06:03:55;16.37;;;10.40;;
73454;SDS011;61690;51.824;6.306;2023-06-24T06:06:20;15.67;;;10.00;;
73454;SDS011;61690;51.824;6.306;2023-06-24T06:08:46;16.23;;;10.07;;
73454;SDS011;61690;51.824;6.306;2023-06-24T06:11:12;16.55;;;10.40;;
73454;SDS011;61690;51.824;6.306;2023-06-24T06:13:38;16.43;;;10.43;;
73454;SDS011;61690;51.824;6.306;2023-06-24T06:16:04;15.57;;;10.02;;
73454;SDS011;61690;51.824;6.306;2023-06-24T06:18:29;15.07;;;10.20;;
73454;SDS011;61690;51.824;6.306;2023-06-24T06:20:56;17.30;;;11.00;;
73454;SDS011;61690;51.824;6.306;2023-06-24T06:23:21;16.53;;;10.87;;
73454;SDS011;61690;51.824;6.306;2023-06-24T06:25:48;15.87;;;10.13;;
73454;SDS011;61690;51.824;6.306;2023-06-24T06:28:13;15.30;;;10.68;;
73454;SDS011;61690;51.824;6.306;2023-06-24T06:30:39;17.80;;;10.57;;
73454;SDS011;61690;51.824;6.306;2023-06-24T06:33:05;15.98;;;9.82;;
73454;SDS011;61690;51.824;6.306;2023-06-24T06:35:31;17.83;;;10.63;;
73454;SDS011;61690;51.824;6.306;2023-06-24T06:37:57;17.55;;;10.43;;
73454;SDS011;61690;51.824;6.306;2023-06-24T06:40:22;15.00;;;10.20;;
73454;SDS011;61690;51.824;6.306;2023-06-24T06:42:49;16.60;;;9.47;;
73454;SDS011;61690;51.824;6.306;2023-06-24T06:45:15;15.52;;;8.25;;
73454;SDS011;61690;51.824;6.306;2023-06-24T06:47:41;13.53;;;8.03;;
73454;SDS011;61690;51.824;6.306;2023-06-24T06:50:06;13.20;;;7.35;;
73454;SDS011;61690;51.824;6.306;2023-06-24T06:52:34;11.90;;;7.03;;
73454;SDS011;61690;51.824;6.306;2023-06-24T06:54:59;14.60;;;7.38;;
73454;SDS011;61690;51.824;6.306;2023-06-24T06:57:25;11.25;;;6.70;;
73454;SDS011;61690;51.824;6.306;2023-06-24T06:59:50;11.77;;;6.73;;
73454;SDS011;61690;51.824;6.306;2023-06-24T07:02:16;11.87;;;6.20;;
73454;SDS011;61690;51.824;6.306;2023-06-24T07:04:44;11.02;;;6.30;;
73454;SDS011;61690;51.824;6.306;2023-06-24T07:07:09;11.30;;;5.55;;
73454;SDS011;61690;51.824;6.306;2023-06-24T07:09:35;10.07;;;5.80;;
73454;SDS011;61690;51.824;6.306;2023-06-24T07:12:00;13.13;;;5.70;;
73454;SDS011;61690;51.824;6.306;2023-06-24T07:14:26;10.07;;;5.53;;
73454;SDS011;61690;51.824;6.306;2023-06-24T07:16:52;9.83;;;5.67;;
73454;SDS011;61690;51.824;6.306;2023-06-24T07:19:17;9.30;;;5.23;;
73454;SDS011;61690;51.824;6.306;2023-06-24T07:21:42;11.67;;;5.57;;
73454;SDS011;61690;51.824;6.306;2023-06-24T07:24:08;9.85;;;5.18;;
73454;SDS011;61690;51.824;6.306;2023-06-24T07:26:35;9.60;;;5.20;;
73454;SDS011;61690;51.824;6.306;2023-06-24T07:29:00;8.82;;;4.60;;
73454;SDS011;61690;51.824;6.306;2023-06-24T07:31:30;8.48;;;3.95;;
73454;SDS011;61690;51.824;6.306;2023-06-24T07:33:56;7.00;;;2.90;;
73454;SDS011;61690;51.824;6.306;2023-06-24T07:36:21;6.90;;;2.80;;
73454;SDS011;61690;51.824;6.306;2023-06-24T07:38:47;6.70;;;2.90;;
73454;SDS011;61690;51.824;6.306;2023-06-24T07:41:12;6.67;;;3.50;;
73454;SDS011;61690;51.824;6.306;2023-06-24T07:43:37;9.50;;;4.17;;
73454;SDS011;61690;51.824;6.306;2023-06-24T07:46:04;8.07;;;3.80;;
73454;SDS011;61690;51.824;6.306;2023-06-24T07:48:29;8.37;;;4.43;;
73454;SDS011;61690;51.824;6.306;2023-06-24T07:50:54;8.37;;;4.10;;
73454;SDS011;61690;51.824;6.306;2023-06-24T07:53:20;10.80;;;4.47;;
73454;SDS011;61690;51.824;6.306;2023-06-24T07:55:45;8.83;;;4.67;;
73454;SDS011;61690;51.824;6.306;2023-06-24T07:58:10;8.00;;;4.17;;
73454;SDS011;61690;51.824;6.306;2023-06-24T08:00:36;9.02;;;4.05;;
73454;SDS011;61690;51.824;6.306;2023-06-24T08:03:01;8.13;;;3.63;;
73454;SDS011;61690;51.824;6.306;2023-06-24T08:05:28;7.68;;;3.85;;
73454;SDS011;61690;51.824;6.306;2023-06-24T08:07:53;6.60;;;3.20;;
73454;SDS011;61690;51.824;6.306;2023-06-24T08:10:18;8.73;;;3.80;;
73454;SDS011;61690;51.824;6.306;2023-06-24T08:12:44;7.03;;;3.33;;
73454;SDS011;61690;51.824;6.306;2023-06-24T08:15:09;9.17;;;3.50;;
73454;SDS011;61690;51.824;6.306;2023-06-24T08:17:35;8.73;;;3.37;;
73454;SDS011;61690;51.824;6.306;2023-06-24T08:20:02;7.88;;;3.50;;
73454;SDS011;61690;51.824;6.306;2023-06-24T08:22:29;6.75;;;3.25;;
73454;SDS011;61690;51.824;6.306;2023-06-24T08:24:55;6.90;;;3.40;;
73454;SDS011;61690;51.824;6.306;2023-06-24T08:27:20;6.47;;;3.33;;
73454;SDS011;61690;51.824;6.306;2023-06-24T08:29:45;7.13;;;3.40;;
73454;SDS011;61690;51.824;6.306;2023-06-24T08:32:11;8.43;;;3.43;;
73454;SDS011;61690;51.824;6.306;2023-06-24T08:34:39;6.20;;;3.30;;
73454;SDS011;61690;51.824;6.306;2023-06-24T08:37:04;7.13;;;3.10;;
73454;SDS011;61690;51.824;6.306;2023-06-24T08:39:30;7.67;;;3.10;;
73454;SDS011;61690;51.824;6.306;2023-06-24T08:41:55;6.53;;;3.10;;
73454;SDS011;61690;51.824;6.306;2023-06-24T08:44:21;6.00;;;3.08;;
73454;SDS011;61690;51.824;6.306;2023-06-24T08:46:48;6.63;;;3.00;;
73454;SDS011;61690;51.824;6.306;2023-06-24T08:49:17;7.40;;;3.10;;
73454;SDS011;61690;51.824;6.306;2023-06-24T08:51:45;6.57;;;3.20;;
73454;SDS011;61690;51.824;6.306;2023-06-24T08:54:14;8.73;;;2.90;;
73454;SDS011;61690;51.824;6.306;2023-06-24T08:56:39;7.67;;;2.60;;
73454;SDS011;61690;51.824;6.306;2023-06-24T08:59:06;6.93;;;3.17;;
73454;SDS011;61690;51.824;6.306;2023-06-24T09:01:32;7.10;;;3.10;;
73454;SDS011;61690;51.824;6.306;2023-06-24T09:03:57;7.93;;;3.00;;
73454;SDS011;61690;51.824;6.306;2023-06-24T09:06:25;6.72;;;3.40;;
73454;SDS011;61690;51.824;6.306;2023-06-24T09:08:55;7.00;;;3.30;;
73454;SDS011;61690;51.824;6.306;2023-06-24T09:11:28;5.82;;;3.05;;
73454;SDS011;61690;51.824;6.306;2023-06-24T09:13:57;8.65;;;3.35;;
73454;SDS011;61690;51.824;6.306;2023-06-24T09:16:24;7.15;;;3.22;;
73454;SDS011;61690;51.824;6.306;2023-06-24T09:18:50;11.35;;;3.38;;
73454;SDS011;61690;51.824;6.306;2023-06-24T09:21:28;9.13;;;3.10;;
73454;SDS011;61690;51.824;6.306;2023-06-24T09:23:57;7.60;;;3.00;;
73454;SDS011;61690;51.824;6.306;2023-06-24T09:26:24;7.75;;;3.17;;
73454;SDS011;61690;51.824;6.306;2023-06-24T09:28:50;7.10;;;3.40;;
73454;SDS011;61690;51.824;6.306;2023-06-24T09:31:16;8.30;;;3.10;;
73454;SDS011;61690;51.824;6.306;2023-06-24T09:33:43;6.72;;;2.90;;
73454;SDS011;61690;51.824;6.306;2023-06-24T09:36:16;6.67;;;3.40;;
73454;SDS011;61690;51.824;6.306;2023-06-24T09:38:42;7.03;;;3.20;;
73454;SDS011;61690;51.824;6.306;2023-06-24T09:41:09;8.70;;;3.35;;
73454;SDS011;61690;51.824;6.306;2023-06-24T09:43:35;11.95;;;3.50;;
73454;SDS011;61690;51.824;6.306;2023-06-24T09:46:02;7.78;;;3.80;;
73454;SDS011;61690;51.824;6.306;2023-06-24T09:48:32;8.30;;;2.90;;
73454;SDS011;61690;51.824;6.306;2023-06-24T09:51:01;8.38;;;3.05;;
73454;SDS011;61690;51.824;6.306;2023-06-24T09:53:32;8.98;;;3.30;;
73454;SDS011;61690;51.824;6.306;2023-06-24T09:56:03;7.95;;;3.03;;
73454;SDS011;61690;51.824;6.306;2023-06-24T09:58:35;8.85;;;3.10;;
73454;SDS011;61690;51.824;6.306;2023-06-24T10:01:06;7.07;;;3.20;;
73454;SDS011;61690;51.824;6.306;2023-06-24T10:03:34;8.80;;;3.25;;
73454;SDS011;61690;51.824;6.306;2023-06-24T10:06:01;7.82;;;3.35;;
73454;SDS011;61690;51.824;6.306;2023-06-24T10:08:27;6.75;;;3.10;;
73454;SDS011;61690;51.824;6.306;2023-06-24T10:10:55;6.60;;;3.40;;
73454;SDS011;61690;51.824;6.306;2023-06-24T10:13:22;6.47;;;3.30;;
73454;SDS011;61690;51.824;6.306;2023-06-24T10:15:48;8.05;;;3.03;;
73454;SDS011;61690;51.824;6.306;2023-06-24T10:21:02;6.73;;;2.80;;
73454;SDS011;61690;51.824;6.306;2023-06-24T10:26:08;6.82;;;3.47;;
73454;SDS011;61690;51.824;6.306;2023-06-24T10:29:08;8.93;;;2.90;;
73454;SDS011;61690;51.824;6.306;2023-06-24T10:34:22;8.93;;;2.90;;
73454;SDS011;61690;51.824;6.306;2023-06-24T10:39:37;6.68;;;2.90;;
73454;SDS011;61690;51.824;6.306;2023-06-24T10:42:31;8.35;;;3.05;;
73454;SDS011;61690;51.824;6.306;2023-06-24T10:44:57;7.30;;;3.13;;
73454;SDS011;61690;51.824;6.306;2023-06-24T10:47:28;6.30;;;2.90;;
73454;SDS011;61690;51.824;6.306;2023-06-24T10:49:54;7.70;;;3.05;;
73454;SDS011;61690;51.824;6.306;2023-06-24T10:52:20;7.50;;;3.03;;
73454;SDS011;61690;51.824;6.306;2023-06-24T10:54:47;6.40;;;2.88;;
73454;SDS011;61690;51.824;6.306;2023-06-24T10:57:14;6.30;;;2.78;;
73454;SDS011;61690;51.824;6.306;2023-06-24T10:59:49;6.28;;;3.20;;
73454;SDS011;61690;51.824;6.306;2023-06-24T11:02:27;6.50;;;2.78;;
73454;SDS011;61690;51.824;6.306;2023-06-24T11:04:54;5.80;;;3.10;;
73454;SDS011;61690;51.824;6.306;2023-06-24T11:07:25;6.75;;;3.08;;
73454;SDS011;61690;51.824;6.306;2023-06-24T11:10:04;6.72;;;2.80;;
73454;SDS011;61690;51.824;6.306;2023-06-24T11:12:32;8.32;;;2.90;;
73454;SDS011;61690;51.824;6.306;2023-06-24T11:15:03;5.68;;;2.50;;
73454;SDS011;61690;51.824;6.306;2023-06-24T11:17:33;8.03;;;3.07;;
73454;SDS011;61690;51.824;6.306;2023-06-24T11:20:01;6.28;;;2.90;;
73454;SDS011;61690;51.824;6.306;2023-06-24T11:22:27;7.57;;;3.00;;
73454;SDS011;61690;51.824;6.306;2023-06-24T11:24:54;7.47;;;3.00;;
73454;SDS011;61690;51.824;6.306;2023-06-24T11:27:27;6.68;;;2.95;;
73454;SDS011;61690;51.824;6.306;2023-06-24T11:29:54;5.68;;;2.53;;
73454;SDS011;61690;51.824;6.306;2023-06-24T11:32:20;7.72;;;2.90;;
73454;SDS011;61690;51.824;6.306;2023-06-24T11:34:46;6.07;;;2.90;;
73454;SDS011;61690;51.824;6.306;2023-06-24T11:37:13;6.13;;;3.00;;
73454;SDS011;61690;51.824;6.306;2023-06-24T11:39:39;6.10;;;2.97;;
73454;SDS011;61690;51.824;6.306;2023-06-24T11:42:08;6.73;;;2.83;;
73454;SDS011;61690;51.824;6.306;2023-06-24T11:44:34;7.43;;;2.75;;
73454;SDS011;61690;51.824;6.306;2023-06-24T11:47:06;6.20;;;2.90;;
73454;SDS011;61690;51.824;6.306;2023-06-24T11:49:49;7.53;;;2.80;;
73454;SDS011;61690;51.824;6.306;2023-06-24T11:52:17;5.55;;;2.65;;
73454;SDS011;61690;51.824;6.306;2023-06-24T11:54:42;6.97;;;3.07;;
73454;SDS011;61690;51.824;6.306;2023-06-24T11:57:08;5.38;;;2.75;;
73454;SDS011;61690;51.824;6.306;2023-06-24T11:59:34;5.60;;;2.60;;
73454;SDS011;61690;51.824;6.306;2023-06-24T12:02:02;7.10;;;2.90;;
73454;SDS011;61690;51.824;6.306;2023-06-24T12:04:30;6.32;;;2.58;;
73454;SDS011;61690;51.824;6.306;2023-06-24T12:06:56;6.50;;;2.90;;
73454;SDS011;61690;51.824;6.306;2023-06-24T12:09:22;6.53;;;2.67;;
73454;SDS011;61690;51.824;6.306;2023-06-24T12:11:50;6.53;;;2.40;;
73454;SDS011;61690;51.824;6.306;2023-06-24T12:14:16;6.97;;;2.55;;
73454;SDS011;61690;51.824;6.306;2023-06-24T12:16:41;10.98;;;2.72;;
73454;SDS011;61690;51.824;6.306;2023-06-24T12:19:07;7.77;;;2.47;;
73454;SDS011;61690;51.824;6.306;2023-06-24T12:21:33;7.93;;;2.70;;
73454;SDS011;61690;51.824;6.306;2023-06-24T12:24:04;7.25;;;2.50;;
73454;SDS011;61690;51.824;6.306;2023-06-24T12:26:33;5.90;;;2.63;;
73454;SDS011;61690;51.824;6.306;2023-06-24T12:29:01;6.72;;;2.70;;
73454;SDS011;61690;51.824;6.306;2023-06-24T12:31:26;6.73;;;2.60;;
73454;SDS011;61690;51.824;6.306;2023-06-24T12:33:51;7.93;;;3.00;;
73454;SDS011;61690;51.824;6.306;2023-06-24T12:36:18;6.20;;;2.60;;
73454;SDS011;61690;51.824;6.306;2023-06-24T12:38:44;6.15;;;3.00;;
73454;SDS011;61690;51.824;6.306;2023-06-24T12:41:09;5.43;;;2.60;;
73454;SDS011;61690;51.824;6.306;2023-06-24T12:43:34;5.83;;;2.73;;
73454;SDS011;61690;51.824;6.306;2023-06-24T12:46:00;7.00;;;2.80;;
73454;SDS011;61690;51.824;6.306;2023-06-24T12:48:25;7.43;;;2.70;;
73454;SDS011;61690;51.824;6.306;2023-06-24T12:50:51;9.80;;;2.58;;
73454;SDS011;61690;51.824;6.306;2023-06-24T12:53:20;5.55;;;2.70;;
73454;SDS011;61690;51.824;6.306;2023-06-24T12:55:46;5.57;;;2.60;;
73454;SDS011;61690;51.824;6.306;2023-06-24T12:58:12;6.63;;;2.87;;
73454;SDS011;61690;51.824;6.306;2023-06-24T13:00:45;5.70;;;2.80;;
73454;SDS011;61690;51.824;6.306;2023-06-24T13:03:10;5.30;;;2.53;;
73454;SDS011;61690;51.824;6.306;2023-06-24T13:05:36;6.30;;;2.80;;
73454;SDS011;61690;51.824;6.306;2023-06-24T13:08:01;6.97;;;2.90;;
73454;SDS011;61690;51.824;6.306;2023-06-24T13:10:26;6.60;;;2.43;;
73454;SDS011;61690;51.824;6.306;2023-06-24T13:12:52;6.63;;;2.40;;
73454;SDS011;61690;51.824;6.306;2023-06-24T13:15:18;5.93;;;2.70;;
73454;SDS011;61690;51.824;6.306;2023-06-24T13:17:46;6.00;;;2.60;;
73454;SDS011;61690;51.824;6.306;2023-06-24T13:20:11;6.43;;;2.90;;
73454;SDS011;61690;51.824;6.306;2023-06-24T13:22:37;6.40;;;2.57;;
73454;SDS011;61690;51.824;6.306;2023-06-24T13:25:02;5.70;;;2.80;;
73454;SDS011;61690;51.824;6.306;2023-06-24T13:27:28;8.20;;;3.10;;
73454;SDS011;61690;51.824;6.306;2023-06-24T13:29:54;5.97;;;2.50;;
73454;SDS011;61690;51.824;6.306;2023-06-24T13:32:19;7.57;;;2.67;;
73454;SDS011;61690;51.824;6.306;2023-06-24T13:34:44;6.57;;;2.70;;
73454;SDS011;61690;51.824;6.306;2023-06-24T13:37:10;6.43;;;2.50;;
73454;SDS011;61690;51.824;6.306;2023-06-24T13:39:37;5.45;;;2.60;;
73454;SDS011;61690;51.824;6.306;2023-06-24T13:42:02;6.77;;;2.60;;
73454;SDS011;61690;51.824;6.306;2023-06-24T13:44:27;7.43;;;2.50;;
73454;SDS011;61690;51.824;6.306;2023-06-24T13:46:53;7.07;;;2.60;;
73454;SDS011;61690;51.824;6.306;2023-06-24T13:49:18;6.90;;;2.60;;
73454;SDS011;61690;51.824;6.306;2023-06-24T13:51:44;5.35;;;2.30;;
73454;SDS011;61690;51.824;6.306;2023-06-24T13:54:11;7.03;;;2.40;;
73454;SDS011;61690;51.824;6.306;2023-06-24T13:56:36;6.63;;;2.40;;
73454;SDS011;61690;51.824;6.306;2023-06-24T13:59:02;6.27;;;2.50;;
73454;SDS011;61690;51.824;6.306;2023-06-24T14:01:27;6.40;;;2.50;;
73454;SDS011;61690;51.824;6.306;2023-06-24T14:03:56;8.00;;;2.50;;
73454;SDS011;61690;51.824;6.306;2023-06-24T14:06:22;5.95;;;2.60;;
73454;SDS011;61690;51.824;6.306;2023-06-24T14:08:50;5.85;;;2.70;;
73454;SDS011;61690;51.824;6.306;2023-06-24T14:11:16;6.53;;;2.80;;
73454;SDS011;61690;51.824;6.306;2023-06-24T14:13:41;6.38;;;2.63;;
73454;SDS011;61690;51.824;6.306;2023-06-24T14:16:08;9.43;;;2.50;;
73454;SDS011;61690;51.824;6.306;2023-06-24T14:18:33;6.00;;;2.70;;
73454;SDS011;61690;51.824;6.306;2023-06-24T14:21:00;6.20;;;2.20;;
73454;SDS011;61690;51.824;6.306;2023-06-24T14:23:29;5.68;;;2.58;;
73454;SDS011;61690;51.824;6.306;2023-06-24T14:25:55;5.73;;;2.10;;
73454;SDS011;61690;51.824;6.306;2023-06-24T14:28:21;10.38;;;2.83;;
73454;SDS011;61690;51.824;6.306;2023-06-24T14:30:47;5.60;;;2.53;;
73454;SDS011;61690;51.824;6.306;2023-06-24T14:33:14;7.82;;;2.67;;
73454;SDS011;61690;51.824;6.306;2023-06-24T14:35:40;5.53;;;2.80;;
73454;SDS011;61690;51.824;6.306;2023-06-24T14:38:06;7.45;;;2.70;;
73454;SDS011;61690;51.824;6.306;2023-06-24T14:40:32;5.45;;;2.50;;
73454;SDS011;61690;51.824;6.306;2023-06-24T14:42:58;5.38;;;2.42;;
73454;SDS011;61690;51.824;6.306;2023-06-24T14:45:23;5.53;;;2.67;;
73454;SDS011;61690;51.824;6.306;2023-06-24T14:47:49;7.07;;;2.60;;
73454;SDS011;61690;51.824;6.306;2023-06-24T14:50:15;6.13;;;2.72;;
73454;SDS011;61690;51.824;6.306;2023-06-24T14:52:40;8.53;;;2.70;;
73454;SDS011;61690;51.824;6.306;2023-06-24T14:55:06;7.53;;;2.67;;
73454;SDS011;61690;51.824;6.306;2023-06-24T14:57:31;6.03;;;2.78;;
73454;SDS011;61690;51.824;6.306;2023-06-24T14:59:56;7.53;;;2.67;;